Terminal Aerodrome Forecast
Issued by NWS

Home | Current Version | Previous Version | Graphics & Text | Print | Product List | Glossary On
Versions: 1 2 3 4 5 6 7 8 9 10 11 12 13 14 15 16 17
000
FTUS42 KMHX 240027 AAA
TAFISO
TAF AMD
KISO 240027Z 2400/2424 15010KT P6SM OVC008
     FM240300 17013KT 3SM SHRA SCT020 OVC025
      TEMPO 2403/2407 2SM TS BKN007CB BKN020
     FM241000 19010KT 3SM SHRA SCT007 BKN040
     FM241200 20010KT P6SM BKN040
     FM241700 22010KT P6SM SCT250
      AMD LTD TO CLD VIS AND WIND=

USA.gov is the U.S. government's official web portal to all federal, state and local government web resources and services.